createdAt,value
2017-07-28T00:00:08.395Z,0
2017-07-28T00:01:09.044Z,0
2017-07-28T00:02:09.661Z,0
2017-07-28T00:03:10.575Z,0
2017-07-28T00:04:11.196Z,0
2017-07-28T00:05:11.815Z,0
2017-07-28T00:06:12.430Z,0
2017-07-28T00:07:13.078Z,0
2017-07-28T00:08:13.997Z,0
2017-07-28T00:09:14.618Z,0
2017-07-28T00:10:15.226Z,0
2017-07-28T00:11:15.842Z,0
2017-07-28T00:12:16.457Z,0
2017-07-28T00:13:17.377Z,0
2017-07-28T00:14:17.990Z,0
2017-07-28T00:15:18.644Z,0
2017-07-28T00:16:19.299Z,0
2017-07-28T00:17:19.913Z,0
2017-07-28T00:18:20.863Z,0
2017-07-28T00:19:21.481Z,0
2017-07-28T00:20:22.095Z,0
2017-07-28T00:21:22.716Z,0
2017-07-28T00:22:23.329Z,0
2017-07-28T00:23:24.242Z,0
2017-07-28T00:24:24.865Z,0
2017-07-28T00:25:25.479Z,0
2017-07-28T00:26:26.393Z,0
2017-07-28T00:27:27.043Z,0
2017-07-28T00:28:27.656Z,0
2017-07-28T00:29:28.272Z,0
2017-07-28T00:30:28.886Z,0
2017-07-28T00:31:29.750Z,0
2017-07-28T00:32:30.371Z,0
2017-07-28T00:33:30.983Z,0
2017-07-28T00:34:31.600Z,0
2017-07-28T00:35:32.251Z,0
2017-07-28T00:36:33.166Z,0
2017-07-28T00:37:33.821Z,0
2017-07-28T00:38:34.433Z,0
2017-07-28T00:39:35.048Z,0
2017-07-28T00:40:35.664Z,0
2017-07-28T00:41:36.579Z,0
2017-07-28T00:42:37.194Z,0
2017-07-28T00:43:37.806Z,0
2017-07-28T00:44:38.423Z,0
2017-07-28T00:45:39.041Z,0
2017-07-28T00:46:39.905Z,0
2017-07-28T00:47:40.531Z,0
2017-07-28T00:48:41.137Z,0
2017-07-28T00:49:41.751Z,0
2017-07-28T00:50:42.372Z,0
2017-07-28T00:51:43.233Z,0
2017-07-28T00:52:43.848Z,0
2017-07-28T00:53:44.465Z,0
2017-07-28T00:54:45.082Z,0
2017-07-28T00:55:45.697Z,0
2017-07-28T00:56:46.568Z,0
2017-07-28T00:57:47.187Z,0
2017-07-28T00:58:47.798Z,0
2017-07-28T00:59:48.417Z,0
2017-07-28T01:00:49.029Z,0
2017-07-28T01:01:49.945Z,0
2017-07-28T01:02:50.561Z,0
2017-07-28T01:03:51.176Z,0
2017-07-28T01:04:51.824Z,0
2017-07-28T01:05:52.438Z,0
2017-07-28T01:06:53.336Z,0
2017-07-28T01:07:53.954Z,0
2017-07-28T01:08:54.573Z,0
2017-07-28T01:09:55.195Z,0
2017-07-28T01:10:55.809Z,0
2017-07-28T01:11:56.672Z,0
2017-07-28T01:12:57.286Z,0
2017-07-28T01:13:57.904Z,0
2017-07-28T01:14:58.520Z,0
2017-07-28T01:15:59.135Z,0
2017-07-28T01:17:00.007Z,0
2017-07-28T01:18:00.625Z,0
2017-07-28T01:19:01.235Z,0
2017-07-28T01:20:01.850Z,0
2017-07-28T01:21:02.467Z,0
2017-07-28T01:22:03.369Z,0
2017-07-28T01:23:03.985Z,0
2017-07-28T01:24:04.633Z,0
2017-07-28T01:25:05.247Z,0
2017-07-28T01:26:05.871Z,0
2017-07-28T01:27:06.787Z,0
2017-07-28T01:28:07.395Z,0
2017-07-28T01:29:08.021Z,0
2017-07-28T01:30:08.670Z,0
2017-07-28T01:31:09.281Z,0
2017-07-28T01:32:10.197Z,0
2017-07-28T01:33:10.818Z,0
2017-07-28T01:34:11.432Z,0
2017-07-28T01:35:12.047Z,0
2017-07-28T01:36:12.662Z,0
2017-07-28T01:37:13.529Z,0
2017-07-28T01:38:14.142Z,0
2017-07-28T01:39:14.758Z,0
2017-07-28T01:40:15.404Z,0
2017-07-28T01:41:16.018Z,0
2017-07-28T01:42:16.934Z,0
2017-07-28T01:43:17.551Z,0
2017-07-28T01:44:18.173Z,0
2017-07-28T01:45:18.786Z,0
2017-07-28T01:46:19.402Z,0
2017-07-28T01:47:20.267Z,0
2017-07-28T01:48:20.888Z,0
2017-07-28T01:49:21.500Z,0
2017-07-28T01:50:22.116Z,0
2017-07-28T01:51:22.731Z,0
2017-07-28T01:52:23.650Z,0
2017-07-28T01:53:24.265Z,0
2017-07-28T01:54:24.886Z,0
2017-07-28T01:55:25.498Z,0
2017-07-28T01:56:26.114Z,0
2017-07-28T01:57:26.979Z,0
2017-07-28T01:58:27.592Z,0
2017-07-28T01:59:28.240Z,0
2017-07-28T02:00:28.855Z,0
2017-07-28T02:01:29.470Z,0
2017-07-28T02:02:30.388Z,0
2017-07-28T02:03:31.008Z,0
2017-07-28T02:04:31.620Z,0
2017-07-28T02:05:32.241Z,0
2017-07-28T02:06:32.851Z,0
2017-07-28T02:07:33.716Z,0
2017-07-28T02:08:34.331Z,0
2017-07-28T02:09:34.948Z,0
2017-07-28T02:10:35.564Z,0
2017-07-28T02:11:36.180Z,0
2017-07-28T02:12:37.045Z,0
2017-07-28T02:13:37.662Z,0
2017-07-28T02:14:38.309Z,0
2017-07-28T02:15:38.932Z,0
2017-07-28T02:16:39.542Z,0
2017-07-28T02:17:40.457Z,0
2017-07-28T02:18:41.106Z,0
2017-07-28T02:19:41.754Z,0
2017-07-28T02:20:42.381Z,0
2017-07-28T02:21:42.986Z,0
2017-07-28T02:22:43.854Z,0
2017-07-28T02:23:44.502Z,0
2017-07-28T02:24:45.118Z,0
2017-07-28T02:25:45.741Z,0
2017-07-28T02:26:46.352Z,0
2017-07-28T02:27:47.216Z,0
2017-07-28T02:28:47.840Z,0
2017-07-28T02:29:48.451Z,0
2017-07-28T02:30:49.067Z,0
2017-07-28T02:31:49.682Z,0
2017-07-28T02:32:50.630Z,0
2017-07-28T02:33:51.252Z,0
2017-07-28T02:34:51.865Z,0
2017-07-28T02:35:52.479Z,0
2017-07-28T02:36:53.093Z,0
2017-07-28T02:37:54.008Z,0
2017-07-28T02:38:54.621Z,0
2017-07-28T02:39:55.241Z,0
2017-07-28T02:40:55.854Z,0
2017-07-28T02:41:56.471Z,0
2017-07-28T02:42:57.386Z,0
2017-07-28T02:43:58.005Z,0
2017-07-28T02:44:58.620Z,0
2017-07-28T02:45:59.234Z,0
2017-07-28T02:46:59.851Z,0
2017-07-28T02:48:00.775Z,0
2017-07-28T02:49:01.392Z,0
2017-07-28T02:50:02.010Z,0
2017-07-28T02:51:02.630Z,0
2017-07-28T02:52:03.243Z,0
2017-07-28T02:53:04.189Z,0
2017-07-28T02:54:04.809Z,0
2017-07-28T02:55:05.422Z,0
2017-07-28T02:56:06.038Z,0
2017-07-28T02:57:06.652Z,0
2017-07-28T02:58:07.574Z,0
2017-07-28T02:59:08.190Z,0
2017-07-28T03:00:08.809Z,0
2017-07-28T03:01:09.422Z,0
2017-07-28T03:02:10.036Z,0
2017-07-28T03:03:10.959Z,0
2017-07-28T03:04:11.568Z,0
2017-07-28T03:05:12.181Z,0
2017-07-28T03:06:12.797Z,0
2017-07-28T03:07:13.413Z,0
2017-07-28T03:08:14.279Z,0
2017-07-28T03:09:14.899Z,0
2017-07-28T03:10:15.517Z,0
2017-07-28T03:11:16.133Z,0
2017-07-28T03:12:16.743Z,0
2017-07-28T03:13:17.658Z,0
2017-07-28T03:14:18.272Z,0
2017-07-28T03:15:18.894Z,0
2017-07-28T03:16:19.509Z,0
2017-07-28T03:17:20.153Z,0
2017-07-28T03:18:21.022Z,0
2017-07-28T03:19:21.632Z,0
2017-07-28T03:20:22.251Z,0
2017-07-28T03:21:22.864Z,0
2017-07-28T03:22:23.477Z,0
2017-07-28T03:23:24.350Z,0
2017-07-28T03:24:24.965Z,0
2017-07-28T03:25:25.579Z,0
2017-07-28T03:26:26.193Z,0
2017-07-28T03:27:26.808Z,0
2017-07-28T03:28:27.675Z,0
2017-07-28T03:29:28.323Z,0
2017-07-28T03:30:28.939Z,0
2017-07-28T03:31:29.558Z,0
2017-07-28T03:32:30.170Z,0
2017-07-28T03:33:31.034Z,0
2017-07-28T03:34:31.685Z,0
2017-07-28T03:35:32.328Z,0
2017-07-28T03:36:32.944Z,0
2017-07-28T03:37:33.556Z,0
2017-07-28T03:38:34.421Z,0
2017-07-28T03:39:35.042Z,0
2017-07-28T03:40:35.690Z,0
2017-07-28T03:41:36.311Z,0
2017-07-28T03:42:36.925Z,0
2017-07-28T03:43:37.839Z,0
2017-07-28T03:44:38.452Z,0
2017-07-28T03:45:39.069Z,0
2017-07-28T03:46:39.683Z,0
2017-07-28T03:47:40.297Z,0
2017-07-28T03:48:41.164Z,0
2017-07-28T03:49:42.028Z,0
2017-07-28T03:50:42.899Z,4
2017-07-28T03:51:43.513Z,0
2017-07-28T03:52:44.128Z,0
2017-07-28T03:53:44.742Z,0
2017-07-28T03:54:45.357Z,0
2017-07-28T03:55:46.272Z,4
2017-07-28T03:56:46.885Z,0
2017-07-28T03:57:47.500Z,0
2017-07-28T03:58:48.121Z,0
2017-07-28T03:59:48.734Z,4
2017-07-28T04:00:49.657Z,0
2017-07-28T04:01:50.311Z,0
2017-07-28T04:02:50.918Z,4
2017-07-28T04:03:51.781Z,4
2017-07-28T04:04:52.700Z,0
2017-07-28T04:05:53.312Z,4
2017-07-28T04:06:54.237Z,4
2017-07-28T04:07:55.102Z,0
2017-07-28T04:08:55.715Z,4
2017-07-28T04:09:56.330Z,4
2017-07-28T04:10:56.946Z,4
2017-07-28T04:11:57.881Z,4
2017-07-28T04:12:58.820Z,4
2017-07-28T04:13:59.436Z,4
2017-07-28T04:15:00.056Z,4
2017-07-28T04:16:00.667Z,4
2017-07-28T04:17:01.281Z,4
2017-07-28T04:18:02.201Z,4
2017-07-28T04:19:03.141Z,4
2017-07-28T04:20:03.755Z,4
2017-07-28T04:21:04.368Z,4
2017-07-28T04:22:05.232Z,4
2017-07-28T04:23:05.850Z,8
2017-07-28T04:24:06.716Z,8
2017-07-28T04:25:07.583Z,8
2017-07-28T04:26:08.203Z,8
2017-07-28T04:27:08.816Z,12
2017-07-28T04:28:09.431Z,12
2017-07-28T04:29:10.347Z,12
2017-07-28T04:30:10.962Z,12
2017-07-28T04:31:11.585Z,12
2017-07-28T04:32:12.206Z,12
2017-07-28T04:33:12.849Z,16
2017-07-28T04:34:13.754Z,16
2017-07-28T04:35:14.369Z,16
2017-07-28T04:36:14.983Z,20
2017-07-28T04:37:15.600Z,20
2017-07-28T04:38:16.231Z,20
2017-07-28T04:39:17.083Z,16
2017-07-28T04:40:17.712Z,20
2017-07-28T04:41:18.326Z,20
2017-07-28T04:42:18.948Z,20
2017-07-28T04:43:19.564Z,16
2017-07-28T04:44:20.546Z,20
2017-07-28T04:45:21.159Z,16
2017-07-28T04:46:21.775Z,16
2017-07-28T04:47:22.432Z,20
2017-07-28T04:48:23.043Z,20
2017-07-28T04:49:23.962Z,20
2017-07-28T04:50:24.581Z,20
2017-07-28T04:51:25.193Z,20
2017-07-28T04:52:25.835Z,28
2017-07-28T04:53:26.424Z,28
2017-07-28T04:54:27.346Z,24
2017-07-28T04:55:27.959Z,28
2017-07-28T04:56:28.876Z,28
2017-07-28T04:57:29.491Z,28
2017-07-28T04:58:30.145Z,32
2017-07-28T04:59:30.758Z,32
2017-07-28T05:00:31.624Z,36
2017-07-28T05:01:32.254Z,32
2017-07-28T05:02:33.119Z,36
2017-07-28T05:03:33.735Z,36
2017-07-28T05:04:34.355Z,40
2017-07-28T05:05:34.969Z,40
2017-07-28T05:06:35.588Z,40
2017-07-28T05:07:36.460Z,40
2017-07-28T05:08:37.418Z,44
2017-07-28T05:09:38.028Z,44
2017-07-28T05:10:38.649Z,44
2017-07-28T05:11:39.261Z,44
2017-07-28T05:12:39.916Z,48
2017-07-28T05:13:40.780Z,44
2017-07-28T05:14:41.441Z,48
2017-07-28T05:15:42.058Z,48
2017-07-28T05:16:42.682Z,48
2017-07-28T05:17:43.306Z,48
2017-07-28T05:18:44.171Z,48
2017-07-28T05:19:44.785Z,48
2017-07-28T05:20:45.409Z,52
2017-07-28T05:21:46.025Z,48
2017-07-28T05:22:46.640Z,52
2017-07-28T05:23:47.506Z,52
2017-07-28T05:24:48.123Z,48
2017-07-28T05:25:48.741Z,52
2017-07-28T05:26:49.691Z,48
2017-07-28T05:27:50.323Z,52
2017-07-28T05:28:50.983Z,48
2017-07-28T05:29:51.597Z,52
2017-07-28T05:30:52.273Z,52
2017-07-28T05:31:53.235Z,52
2017-07-28T05:32:53.854Z,56
2017-07-28T05:33:54.481Z,52
2017-07-28T05:34:55.115Z,56
2017-07-28T05:35:55.738Z,56
2017-07-28T05:36:56.691Z,56
2017-07-28T05:37:57.346Z,56
2017-07-28T05:38:57.964Z,56
2017-07-28T05:39:58.589Z,56
2017-07-28T05:40:59.213Z,56
2017-07-28T05:42:00.133Z,60
2017-07-28T05:43:00.802Z,60
2017-07-28T05:44:01.417Z,60
2017-07-28T05:45:02.035Z,64
2017-07-28T05:46:02.651Z,68
2017-07-28T05:47:03.523Z,68
2017-07-28T05:48:04.138Z,68
2017-07-28T05:49:04.756Z,72
2017-07-28T05:50:05.426Z,72
2017-07-28T05:51:06.051Z,72
2017-07-28T05:52:06.983Z,76
2017-07-28T05:53:07.603Z,76
2017-07-28T05:54:08.257Z,76
2017-07-28T05:55:08.872Z,72
2017-07-28T05:56:09.534Z,72
2017-07-28T05:57:10.528Z,76
2017-07-28T05:58:11.180Z,72
2017-07-28T05:59:11.834Z,80
2017-07-28T06:00:12.458Z,80
2017-07-28T06:01:13.075Z,72
2017-07-28T06:02:13.997Z,72
2017-07-28T06:03:14.611Z,68
2017-07-28T06:04:15.227Z,64
2017-07-28T06:05:16.205Z,64
2017-07-28T06:06:16.840Z,68
2017-07-28T06:07:17.455Z,68
2017-07-28T06:08:18.072Z,72
2017-07-28T06:09:18.696Z,72
2017-07-28T06:10:19.615Z,72
2017-07-28T06:11:20.231Z,72
2017-07-28T06:12:20.854Z,76
2017-07-28T06:13:21.486Z,76
2017-07-28T06:14:22.101Z,76
2017-07-28T06:15:23.017Z,80
2017-07-28T06:16:23.638Z,80
2017-07-28T06:17:24.254Z,84
2017-07-28T06:18:24.871Z,84
2017-07-28T06:19:25.486Z,84
2017-07-28T06:20:26.403Z,84
2017-07-28T06:21:27.025Z,88
2017-07-28T06:22:27.648Z,88
2017-07-28T06:23:28.267Z,84
2017-07-28T06:24:28.881Z,84
2017-07-28T06:25:29.748Z,88
2017-07-28T06:26:30.368Z,88
2017-07-28T06:27:30.986Z,88
2017-07-28T06:28:31.601Z,92
2017-07-28T06:29:32.219Z,96
2017-07-28T06:30:33.086Z,96
2017-07-28T06:31:33.711Z,100
2017-07-28T06:32:34.327Z,104
2017-07-28T06:33:34.944Z,104
2017-07-28T06:34:35.564Z,108
2017-07-28T06:35:36.438Z,112
2017-07-28T06:36:37.052Z,116
2017-07-28T06:37:37.682Z,116
2017-07-28T06:38:38.296Z,116
2017-07-28T06:39:38.949Z,116
2017-07-28T06:40:39.851Z,116
2017-07-28T06:41:40.487Z,116
2017-07-28T06:42:41.104Z,120
2017-07-28T06:43:41.738Z,120
2017-07-28T06:44:42.428Z,120
2017-07-28T06:45:43.355Z,124
2017-07-28T06:46:43.989Z,124
2017-07-28T06:47:44.607Z,124
2017-07-28T06:48:45.230Z,128
2017-07-28T06:49:45.859Z,128
2017-07-28T06:50:46.803Z,132
2017-07-28T06:51:47.710Z,128
2017-07-28T06:52:48.338Z,124
2017-07-28T06:53:49.309Z,132
2017-07-28T06:54:49.938Z,132
2017-07-28T06:55:50.856Z,136
2017-07-28T06:56:51.774Z,140
2017-07-28T06:57:52.410Z,140
2017-07-28T06:58:53.331Z,136
2017-07-28T06:59:54.007Z,136
2017-07-28T07:00:54.626Z,140
2017-07-28T07:01:55.307Z,140
2017-07-28T07:02:55.922Z,140
2017-07-28T07:03:56.805Z,136
2017-07-28T07:04:57.422Z,136
2017-07-28T07:05:58.044Z,132
2017-07-28T07:06:58.661Z,132
2017-07-28T07:07:59.280Z,140
2017-07-28T07:09:00.352Z,140
2017-07-28T07:10:01.034Z,148
2017-07-28T07:11:01.697Z,152
2017-07-28T07:12:02.315Z,152
2017-07-28T07:13:03.005Z,148
2017-07-28T07:14:03.929Z,148
2017-07-28T07:15:04.556Z,148
2017-07-28T07:16:05.193Z,148
2017-07-28T07:17:05.819Z,152
2017-07-28T07:18:06.459Z,156
2017-07-28T07:19:07.433Z,160
2017-07-28T07:21:23.912Z,164
2017-07-28T07:22:24.558Z,168
2017-07-28T07:23:25.178Z,176
2017-07-28T07:24:25.807Z,184
2017-07-28T07:25:26.443Z,196
2017-07-28T07:26:28.573Z,208
2017-07-28T07:27:29.198Z,228
2017-07-28T07:28:29.820Z,236
2017-07-28T07:29:30.743Z,252
2017-07-28T07:30:31.363Z,260
2017-07-28T07:31:31.986Z,276
2017-07-28T07:32:32.605Z,268
2017-07-28T07:33:33.533Z,260
2017-07-28T07:34:34.163Z,260
2017-07-28T07:35:34.830Z,260
2017-07-28T07:36:35.478Z,260
2017-07-28T07:37:36.169Z,260
2017-07-28T07:38:37.098Z,264
2017-07-28T07:39:37.733Z,272
2017-07-28T07:40:38.352Z,276
2017-07-28T07:41:38.971Z,272
2017-07-28T07:42:39.600Z,268
2017-07-28T07:43:40.517Z,252
2017-07-28T07:44:41.136Z,240
2017-07-28T07:45:41.767Z,232
2017-07-28T07:46:42.388Z,224
2017-07-28T07:47:43.014Z,220
2017-07-28T07:48:43.935Z,212
2017-07-28T07:49:44.554Z,208
2017-07-28T07:50:45.176Z,208
2017-07-28T07:51:45.796Z,212
2017-07-28T07:52:46.416Z,216
2017-07-28T07:53:47.370Z,224
2017-07-28T07:54:47.993Z,220
2017-07-28T07:55:48.613Z,216
2017-07-28T07:56:49.232Z,216
2017-07-28T07:57:49.852Z,220
2017-07-28T07:58:50.721Z,220
2017-07-28T07:59:51.354Z,228
2017-07-28T08:00:51.981Z,232
2017-07-28T08:01:52.626Z,232
2017-07-28T08:02:53.595Z,244
2017-07-28T08:03:54.437Z,248
2017-07-28T08:04:55.360Z,260
2017-07-28T08:05:56.019Z,272
2017-07-28T08:06:56.942Z,280
2017-07-28T08:07:57.594Z,288
2017-07-28T08:08:58.251Z,296
2017-07-28T08:09:59.121Z,288
2017-07-28T08:11:00.075Z,276
2017-07-28T08:12:00.693Z,276
2017-07-28T08:13:01.316Z,288
2017-07-28T08:14:01.942Z,284
2017-07-28T08:15:02.595Z,268
2017-07-28T08:16:03.469Z,256
2017-07-28T08:17:04.091Z,248
2017-07-28T08:18:04.744Z,236
2017-07-28T08:19:05.373Z,232
2017-07-28T08:20:06.032Z,224
2017-07-28T08:21:06.958Z,216
2017-07-28T08:22:07.581Z,220
2017-07-28T08:23:08.452Z,220
2017-07-28T08:24:09.374Z,220
2017-07-28T08:25:09.994Z,228
2017-07-28T08:26:10.664Z,224
2017-07-28T08:27:11.284Z,232
2017-07-28T08:28:12.162Z,232
2017-07-28T08:29:13.087Z,236
2017-07-28T08:30:14.047Z,248
2017-07-28T08:31:14.680Z,252
2017-07-28T08:32:15.300Z,256
2017-07-28T08:33:15.925Z,260
2017-07-28T08:34:16.551Z,264
2017-07-28T08:35:17.487Z,268
2017-07-28T08:36:18.359Z,268
2017-07-28T08:37:19.289Z,264
2017-07-28T08:38:19.911Z,264
2017-07-28T08:39:20.564Z,272
2017-07-28T08:40:21.228Z,280
2017-07-28T08:41:21.855Z,284
2017-07-28T08:42:22.779Z,284
2017-07-28T08:43:23.400Z,284
2017-07-28T08:44:24.021Z,288
2017-07-28T08:45:24.941Z,284
2017-07-28T08:46:25.564Z,296
2017-07-28T08:47:26.183Z,308
2017-07-28T08:48:26.833Z,308
2017-07-28T08:49:27.453Z,296
2017-07-28T08:50:28.374Z,292
2017-07-28T08:51:28.992Z,288
2017-07-28T08:52:29.614Z,288
2017-07-28T08:53:30.234Z,296
2017-07-28T08:54:30.893Z,296
2017-07-28T08:55:31.826Z,304
2017-07-28T08:56:32.444Z,312
2017-07-28T08:57:33.093Z,312
2017-07-28T08:58:33.734Z,308
2017-07-28T08:59:34.677Z,296
2017-07-28T09:00:35.634Z,288
2017-07-28T09:01:36.603Z,268
2017-07-28T09:03:53.016Z,304
2017-07-28T09:04:53.640Z,296
2017-07-28T09:05:54.508Z,304
2017-07-28T09:06:55.130Z,256
2017-07-28T09:07:55.752Z,276
2017-07-28T09:08:56.371Z,324
2017-07-28T09:09:57.289Z,284
2017-07-28T09:10:57.911Z,288
2017-07-28T09:11:58.782Z,348
2017-07-28T09:12:59.406Z,288
2017-07-28T09:14:00.023Z,276
2017-07-28T09:15:00.643Z,280
2017-07-28T09:16:01.266Z,256
2017-07-28T09:17:02.134Z,272
2017-07-28T09:18:02.755Z,248
2017-07-28T09:19:03.381Z,236
2017-07-28T09:20:04.003Z,280
2017-07-28T09:21:04.621Z,260
2017-07-28T09:22:05.548Z,252
2017-07-28T09:23:06.164Z,404
2017-07-28T09:24:06.788Z,264
2017-07-28T09:25:07.414Z,264
2017-07-28T09:26:08.031Z,284
2017-07-28T09:27:08.905Z,316
2017-07-28T09:28:09.524Z,372
2017-07-28T09:29:10.152Z,396
2017-07-28T09:30:10.769Z,352
2017-07-28T09:31:11.391Z,332
2017-07-28T09:32:12.262Z,336
2017-07-28T09:33:12.884Z,364
2017-07-28T09:34:13.505Z,372
2017-07-28T09:35:14.158Z,400
2017-07-28T09:36:14.779Z,400
2017-07-28T09:37:15.654Z,432
2017-07-28T09:38:16.274Z,396
2017-07-28T09:39:16.894Z,392
2017-07-28T09:40:17.516Z,392
2017-07-28T09:41:18.140Z,400
2017-07-28T09:42:19.008Z,400
2017-07-28T09:43:19.635Z,428
2017-07-28T09:44:20.254Z,428
2017-07-28T09:45:20.882Z,420
2017-07-28T09:46:21.500Z,448
2017-07-28T09:47:22.371Z,424
2017-07-28T09:48:23.000Z,452
2017-07-28T09:49:23.623Z,504
2017-07-28T09:50:24.278Z,496
2017-07-28T09:51:24.902Z,552
2017-07-28T09:52:25.820Z,564
2017-07-28T09:53:26.443Z,476
2017-07-28T09:54:27.065Z,580
2017-07-28T09:55:27.694Z,572
2017-07-28T09:56:28.314Z,648
2017-07-28T09:57:29.235Z,644
2017-07-28T09:58:29.857Z,640
2017-07-28T09:59:30.514Z,644
2017-07-28T10:00:31.168Z,648
2017-07-28T10:01:31.794Z,648
2017-07-28T10:02:32.712Z,648
2017-07-28T10:03:33.333Z,648
2017-07-28T10:04:33.959Z,652
2017-07-28T10:05:34.575Z,648
2017-07-28T10:06:35.199Z,652
2017-07-28T10:07:36.070Z,656
2017-07-28T10:08:36.695Z,660
2017-07-28T10:09:37.316Z,664
2017-07-28T10:10:37.942Z,668
2017-07-28T10:11:38.560Z,676
2017-07-28T10:12:39.483Z,684
2017-07-28T10:13:40.109Z,688
2017-07-28T10:14:40.726Z,692
2017-07-28T10:15:41.348Z,700
2017-07-28T10:16:41.975Z,708
2017-07-28T10:17:42.898Z,716
2017-07-28T10:18:43.523Z,724
2017-07-28T10:19:44.140Z,732
2017-07-28T10:20:44.764Z,736
2017-07-28T10:21:45.383Z,740
2017-07-28T10:22:46.260Z,744
2017-07-28T10:23:46.875Z,744
2017-07-28T10:24:47.498Z,744
2017-07-28T10:25:48.121Z,740
2017-07-28T10:26:48.750Z,752
2017-07-28T10:27:49.618Z,760
2017-07-28T10:28:50.245Z,764
2017-07-28T10:29:50.897Z,772
2017-07-28T10:30:51.547Z,784
2017-07-28T10:31:52.169Z,792
2017-07-28T10:32:53.041Z,796
2017-07-28T10:33:53.665Z,808
2017-07-28T10:34:54.287Z,824
2017-07-28T10:35:54.909Z,800
2017-07-28T10:36:55.530Z,748
2017-07-28T10:37:56.401Z,704
2017-07-28T10:38:57.024Z,760
2017-07-28T10:39:57.680Z,624
2017-07-28T10:40:58.336Z,672
2017-07-28T10:41:58.964Z,680
2017-07-28T10:42:59.888Z,720
2017-07-28T10:44:00.506Z,688
2017-07-28T10:45:01.128Z,864
2017-07-28T10:46:01.751Z,832
2017-07-28T10:47:02.373Z,932
2017-07-28T10:48:03.295Z,916
2017-07-28T10:49:03.917Z,712
2017-07-28T10:50:04.539Z,840
2017-07-28T10:51:05.163Z,752
2017-07-28T10:52:05.783Z,688
2017-07-28T10:53:06.657Z,776
2017-07-28T10:54:07.280Z,804
2017-07-28T10:55:07.901Z,652
2017-07-28T10:56:08.530Z,732
2017-07-28T10:57:09.148Z,884
2017-07-28T10:58:10.070Z,892
2017-07-28T10:59:10.723Z,808
2017-07-28T11:00:11.346Z,964
2017-07-28T11:01:11.968Z,936
2017-07-28T11:02:12.590Z,944
2017-07-28T11:03:13.496Z,932
2017-07-28T11:04:14.124Z,916
2017-07-28T11:05:14.749Z,912
2017-07-28T11:06:15.368Z,900
2017-07-28T11:07:15.991Z,896
2017-07-28T11:08:16.864Z,864
2017-07-28T11:09:17.485Z,552
2017-07-28T11:10:18.115Z,884
2017-07-28T11:11:18.734Z,996
2017-07-28T11:12:19.357Z,748
2017-07-28T11:13:20.231Z,624
2017-07-28T11:14:20.860Z,548
2017-07-28T11:15:21.481Z,844
2017-07-28T11:16:22.104Z,644
2017-07-28T11:17:22.729Z,644
2017-07-28T11:18:23.650Z,796
2017-07-28T11:19:24.273Z,748
2017-07-28T11:20:24.934Z,728
2017-07-28T11:21:25.561Z,788
2017-07-28T11:22:26.189Z,780
2017-07-28T11:23:27.110Z,780
2017-07-28T11:24:27.732Z,672
2017-07-28T11:25:28.356Z,704
2017-07-28T11:26:28.987Z,668
2017-07-28T11:27:29.606Z,684
2017-07-28T11:28:30.527Z,672
2017-07-28T11:29:31.152Z,780
2017-07-28T11:30:31.776Z,1132
2017-07-28T11:31:32.401Z,1052
2017-07-28T11:32:33.027Z,1016
2017-07-28T11:33:33.981Z,1008
2017-07-28T11:34:34.609Z,1000
2017-07-28T11:35:35.274Z,992
2017-07-28T11:36:35.897Z,984
2017-07-28T11:37:36.554Z,1000
2017-07-28T11:38:37.480Z,1016
2017-07-28T11:39:38.106Z,1008
2017-07-28T11:40:38.732Z,1004
2017-07-28T11:41:39.356Z,996
2017-07-28T11:42:39.980Z,1028
2017-07-28T11:43:40.908Z,1044
2017-07-28T11:44:41.533Z,1004
2017-07-28T11:45:42.161Z,904
2017-07-28T11:46:42.781Z,972
2017-07-28T11:47:43.406Z,1028
2017-07-28T11:48:44.289Z,944
2017-07-28T11:49:44.906Z,932
2017-07-28T11:50:45.535Z,1020
2017-07-28T11:51:46.156Z,996
2017-07-28T11:52:46.821Z,956
2017-07-28T11:53:47.692Z,852
2017-07-28T11:54:48.321Z,872
2017-07-28T11:55:48.942Z,840
2017-07-28T11:56:49.567Z,764
2017-07-28T11:57:50.196Z,860
2017-07-28T11:58:51.118Z,832
2017-07-28T11:59:51.746Z,824
2017-07-28T12:00:52.369Z,884
2017-07-28T12:01:52.998Z,824
2017-07-28T12:02:53.620Z,780
2017-07-28T12:03:54.544Z,772
2017-07-28T12:04:55.176Z,812
2017-07-28T12:05:55.797Z,772
2017-07-28T12:06:56.423Z,772
2017-07-28T12:07:57.048Z,712
2017-07-28T12:08:57.979Z,724
2017-07-28T12:09:58.608Z,864
2017-07-28T12:10:59.238Z,1060
2017-07-28T12:11:59.903Z,1084
2017-07-28T12:13:00.526Z,840
2017-07-28T12:14:01.401Z,1136
2017-07-28T12:15:02.027Z,1060
2017-07-28T12:16:02.653Z,1088
2017-07-28T12:17:03.312Z,992
2017-07-28T12:18:03.941Z,1040
2017-07-28T12:19:04.877Z,1036
2017-07-28T12:20:05.495Z,1012
2017-07-28T12:21:06.120Z,900
2017-07-28T12:22:06.745Z,1028
2017-07-28T12:23:07.369Z,1024
2017-07-28T12:24:08.243Z,1044
2017-07-28T12:25:08.872Z,1200
2017-07-28T12:26:09.533Z,1088
2017-07-28T12:27:10.158Z,1160
2017-07-28T12:28:10.781Z,932
2017-07-28T12:29:11.705Z,840
2017-07-28T12:30:12.330Z,1052
2017-07-28T12:31:12.956Z,1040
2017-07-28T12:32:13.585Z,992
2017-07-28T12:33:14.207Z,740
2017-07-28T12:34:15.166Z,1036
2017-07-28T12:35:15.792Z,1076
2017-07-28T12:36:16.420Z,1036
2017-07-28T12:37:17.044Z,1012
2017-07-28T12:38:17.668Z,796
2017-07-28T12:39:18.592Z,712
2017-07-28T12:40:19.218Z,580
2017-07-28T12:41:19.879Z,808
2017-07-28T12:42:20.504Z,756
2017-07-28T12:43:21.130Z,688
2017-07-28T12:44:22.005Z,796
2017-07-28T12:45:22.632Z,980
2017-07-28T12:46:23.259Z,1048
2017-07-28T12:47:23.889Z,1104
2017-07-28T12:48:24.511Z,1156
2017-07-28T12:49:25.473Z,1184
2017-07-28T12:50:26.135Z,1156
2017-07-28T12:51:26.764Z,1108
2017-07-28T12:52:27.390Z,1084
2017-07-28T12:53:28.014Z,1116
2017-07-28T12:54:28.941Z,1124
2017-07-28T12:55:29.565Z,1172
2017-07-28T12:56:30.193Z,1168
2017-07-28T12:57:30.854Z,1172
2017-07-28T12:58:31.516Z,1176
2017-07-28T12:59:32.443Z,1176
2017-07-28T13:00:33.076Z,1152
2017-07-28T13:01:33.707Z,1156
2017-07-28T13:02:34.331Z,1136
2017-07-28T13:03:34.958Z,1156
2017-07-28T13:04:35.884Z,1116
2017-07-28T13:05:36.520Z,1128
2017-07-28T13:06:37.143Z,1112
2017-07-28T13:07:37.769Z,1156
2017-07-28T13:08:38.398Z,1176
2017-07-28T13:09:39.324Z,1180
2017-07-28T13:10:39.958Z,1184
2017-07-28T13:11:40.586Z,1124
2017-07-28T13:12:41.215Z,1112
2017-07-28T13:13:41.841Z,1148
2017-07-28T13:14:42.717Z,1164
2017-07-28T13:15:43.344Z,1164
2017-07-28T13:16:43.970Z,1156
2017-07-28T13:17:44.598Z,1152
2017-07-28T13:18:45.228Z,1152
2017-07-28T13:19:46.108Z,1152
2017-07-28T13:20:46.732Z,1152
2017-07-28T13:21:47.361Z,1152
2017-07-28T13:22:47.987Z,1160
2017-07-28T13:23:48.613Z,1152
2017-07-28T13:24:49.540Z,1100
2017-07-28T13:25:50.173Z,1088
2017-07-28T13:26:50.809Z,1092
2017-07-28T13:27:51.426Z,1104
2017-07-28T13:28:52.058Z,1152
2017-07-28T13:29:52.988Z,1176
2017-07-28T13:30:53.620Z,1172
2017-07-28T13:31:54.248Z,1176
2017-07-28T13:32:54.903Z,1180
2017-07-28T13:33:55.541Z,1188
2017-07-28T13:34:56.448Z,1196
2017-07-28T13:35:57.073Z,1196
2017-07-28T13:36:57.999Z,1200
2017-07-28T13:37:58.877Z,1212
2017-07-28T13:38:59.502Z,1220
2017-07-28T13:40:00.137Z,1232
2017-07-28T13:41:00.763Z,1244
2017-07-28T13:42:01.695Z,1248
2017-07-28T13:43:02.621Z,1184
2017-07-28T13:44:03.248Z,1188
2017-07-28T13:45:03.875Z,1180
2017-07-28T13:46:04.802Z,1144
2017-07-28T13:47:05.468Z,1304
2017-07-28T13:48:06.096Z,1268
2017-07-28T13:49:06.722Z,1376
2017-07-28T13:50:07.349Z,868
2017-07-28T13:51:08.307Z,1020
2017-07-28T13:52:09.236Z,1356
2017-07-28T13:53:09.869Z,1168
2017-07-28T13:54:10.795Z,1504
2017-07-28T13:55:11.420Z,1444
2017-07-28T13:56:12.082Z,1528
2017-07-28T13:57:12.712Z,1372
2017-07-28T13:58:13.343Z,1048
2017-07-28T13:59:14.306Z,1640
2017-07-28T14:00:14.935Z,1120
2017-07-28T14:01:15.567Z,1124
2017-07-28T14:02:16.200Z,880
2017-07-28T14:03:16.856Z,948
2017-07-28T14:04:17.740Z,1028
2017-07-28T14:05:18.366Z,1036
2017-07-28T14:06:18.993Z,1172
2017-07-28T14:07:19.627Z,872
2017-07-28T14:08:20.550Z,776
2017-07-28T14:09:21.483Z,776
2017-07-28T14:10:22.114Z,720
2017-07-28T14:11:22.743Z,936
2017-07-28T14:12:23.367Z,1364
2017-07-28T14:13:24.244Z,636
2017-07-28T14:14:24.876Z,728
2017-07-28T14:15:25.505Z,824
2017-07-28T14:16:26.432Z,792